sensor_id;sensor_type;location;lat;lon;timestamp;P1;durP1;ratioP1;P2;durP2;ratioP2
66739;SDS011;53653;52.188;8.602;2023-07-16T00:00:30;7.90;;;2.30;;
66739;SDS011;53653;52.188;8.602;2023-07-16T00:02:57;9.70;;;2.70;;
66739;SDS011;53653;52.188;8.602;2023-07-16T00:05:22;6.63;;;2.50;;
66739;SDS011;53653;52.188;8.602;2023-07-16T00:07:48;7.70;;;1.90;;
66739;SDS011;53653;52.188;8.602;2023-07-16T00:10:13;6.53;;;2.03;;
66739;SDS011;53653;52.188;8.602;2023-07-16T00:12:39;5.93;;;2.10;;
66739;SDS011;53653;52.188;8.602;2023-07-16T00:15:05;6.20;;;1.92;;
66739;SDS011;53653;52.188;8.602;2023-07-16T00:17:31;6.57;;;2.30;;
66739;SDS011;53653;52.188;8.602;2023-07-16T00:19:57;6.57;;;2.10;;
66739;SDS011;53653;52.188;8.602;2023-07-16T00:22:23;7.00;;;1.98;;
66739;SDS011;53653;52.188;8.602;2023-07-16T00:24:48;8.13;;;2.50;;
66739;SDS011;53653;52.188;8.602;2023-07-16T00:27:14;6.40;;;2.00;;
66739;SDS011;53653;52.188;8.602;2023-07-16T00:29:40;6.90;;;2.20;;
66739;SDS011;53653;52.188;8.602;2023-07-16T00:32:05;7.03;;;2.10;;
66739;SDS011;53653;52.188;8.602;2023-07-16T00:34:31;6.75;;;2.25;;
66739;SDS011;53653;52.188;8.602;2023-07-16T00:36:56;6.93;;;2.43;;
66739;SDS011;53653;52.188;8.602;2023-07-16T00:39:27;6.57;;;2.30;;
66739;SDS011;53653;52.188;8.602;2023-07-16T00:41:53;9.23;;;2.10;;
66739;SDS011;53653;52.188;8.602;2023-07-16T00:44:18;8.10;;;2.10;;
66739;SDS011;53653;52.188;8.602;2023-07-16T00:46:44;6.97;;;2.20;;
66739;SDS011;53653;52.188;8.602;2023-07-16T00:49:11;7.78;;;2.22;;
66739;SDS011;53653;52.188;8.602;2023-07-16T00:51:37;7.35;;;2.10;;
66739;SDS011;53653;52.188;8.602;2023-07-16T00:54:03;6.63;;;2.07;;
66739;SDS011;53653;52.188;8.602;2023-07-16T00:56:29;5.63;;;2.10;;
66739;SDS011;53653;52.188;8.602;2023-07-16T00:58:54;5.87;;;2.13;;
66739;SDS011;53653;52.188;8.602;2023-07-16T01:01:20;7.15;;;2.40;;
66739;SDS011;53653;52.188;8.602;2023-07-16T01:03:45;7.97;;;2.23;;
66739;SDS011;53653;52.188;8.602;2023-07-16T01:06:25;5.40;;;2.08;;
66739;SDS011;53653;52.188;8.602;2023-07-16T01:09:10;5.95;;;2.03;;
66739;SDS011;53653;52.188;8.602;2023-07-16T01:11:40;8.07;;;2.20;;
66739;SDS011;53653;52.188;8.602;2023-07-16T01:14:08;7.55;;;2.50;;
66739;SDS011;53653;52.188;8.602;2023-07-16T01:16:33;8.27;;;2.83;;
66739;SDS011;53653;52.188;8.602;2023-07-16T01:18:59;6.97;;;2.37;;
66739;SDS011;53653;52.188;8.602;2023-07-16T01:21:24;7.38;;;2.30;;
66739;SDS011;53653;52.188;8.602;2023-07-16T01:24:00;7.63;;;2.03;;
66739;SDS011;53653;52.188;8.602;2023-07-16T01:30:13;6.22;;;2.00;;
66739;SDS011;53653;52.188;8.602;2023-07-16T01:32:34;7.25;;;1.88;;
66739;SDS011;53653;52.188;8.602;2023-07-16T01:35:02;6.68;;;2.30;;
66739;SDS011;53653;52.188;8.602;2023-07-16T01:37:29;8.00;;;2.37;;
66739;SDS011;53653;52.188;8.602;2023-07-16T01:39:55;6.90;;;2.40;;
66739;SDS011;53653;52.188;8.602;2023-07-16T01:42:21;9.17;;;2.47;;
66739;SDS011;53653;52.188;8.602;2023-07-16T01:44:47;5.82;;;2.15;;
66739;SDS011;53653;52.188;8.602;2023-07-16T01:49:55;5.07;;;2.15;;
66739;SDS011;53653;52.188;8.602;2023-07-16T01:52:21;6.63;;;2.47;;
66739;SDS011;53653;52.188;8.602;2023-07-16T01:54:46;5.63;;;2.00;;
66739;SDS011;53653;52.188;8.602;2023-07-16T01:57:12;6.97;;;2.30;;
66739;SDS011;53653;52.188;8.602;2023-07-16T01:59:38;7.33;;;2.17;;
66739;SDS011;53653;52.188;8.602;2023-07-16T02:02:04;6.50;;;2.00;;
66739;SDS011;53653;52.188;8.602;2023-07-16T02:04:29;6.03;;;2.43;;
66739;SDS011;53653;52.188;8.602;2023-07-16T02:06:57;7.37;;;2.13;;
66739;SDS011;53653;52.188;8.602;2023-07-16T02:09:22;7.68;;;2.40;;
66739;SDS011;53653;52.188;8.602;2023-07-16T02:11:48;6.43;;;2.07;;
66739;SDS011;53653;52.188;8.602;2023-07-16T02:14:14;7.13;;;2.33;;
66739;SDS011;53653;52.188;8.602;2023-07-16T02:16:41;6.93;;;2.70;;
66739;SDS011;53653;52.188;8.602;2023-07-16T02:19:06;6.07;;;2.20;;
66739;SDS011;53653;52.188;8.602;2023-07-16T02:21:34;6.78;;;2.20;;
66739;SDS011;53653;52.188;8.602;2023-07-16T02:23:59;7.40;;;2.33;;
66739;SDS011;53653;52.188;8.602;2023-07-16T02:26:25;7.38;;;2.35;;
66739;SDS011;53653;52.188;8.602;2023-07-16T02:28:50;7.23;;;2.33;;
66739;SDS011;53653;52.188;8.602;2023-07-16T02:31:16;6.63;;;2.40;;
66739;SDS011;53653;52.188;8.602;2023-07-16T02:33:41;6.60;;;2.13;;
66739;SDS011;53653;52.188;8.602;2023-07-16T02:36:07;6.43;;;2.58;;
66739;SDS011;53653;52.188;8.602;2023-07-16T02:38:32;8.43;;;2.70;;
66739;SDS011;53653;52.188;8.602;2023-07-16T02:40:58;6.75;;;2.38;;
66739;SDS011;53653;52.188;8.602;2023-07-16T02:43:23;10.43;;;2.30;;
66739;SDS011;53653;52.188;8.602;2023-07-16T02:45:49;7.80;;;2.20;;
66739;SDS011;53653;52.188;8.602;2023-07-16T02:48:15;8.27;;;2.70;;
66739;SDS011;53653;52.188;8.602;2023-07-16T02:50:41;8.57;;;2.57;;
66739;SDS011;53653;52.188;8.602;2023-07-16T02:53:06;6.70;;;2.60;;
66739;SDS011;53653;52.188;8.602;2023-07-16T02:55:34;8.80;;;2.30;;
66739;SDS011;53653;52.188;8.602;2023-07-16T02:58:00;9.47;;;2.40;;
66739;SDS011;53653;52.188;8.602;2023-07-16T03:00:30;6.72;;;2.10;;
66739;SDS011;53653;52.188;8.602;2023-07-16T03:02:56;8.98;;;2.65;;
66739;SDS011;53653;52.188;8.602;2023-07-16T03:05:23;6.85;;;2.40;;
66739;SDS011;53653;52.188;8.602;2023-07-16T03:07:49;6.50;;;2.20;;
66739;SDS011;53653;52.188;8.602;2023-07-16T03:10:16;10.90;;;2.63;;
66739;SDS011;53653;52.188;8.602;2023-07-16T03:12:41;9.33;;;2.70;;
66739;SDS011;53653;52.188;8.602;2023-07-16T03:15:07;7.40;;;2.45;;
66739;SDS011;53653;52.188;8.602;2023-07-16T03:17:33;6.45;;;2.22;;
66739;SDS011;53653;52.188;8.602;2023-07-16T03:19:59;10.63;;;2.60;;
66739;SDS011;53653;52.188;8.602;2023-07-16T03:22:24;7.60;;;2.50;;
66739;SDS011;53653;52.188;8.602;2023-07-16T03:24:50;7.63;;;2.77;;
66739;SDS011;53653;52.188;8.602;2023-07-16T03:27:16;8.95;;;2.38;;
66739;SDS011;53653;52.188;8.602;2023-07-16T03:29:42;6.53;;;2.63;;
66739;SDS011;53653;52.188;8.602;2023-07-16T03:32:10;9.52;;;3.00;;
66739;SDS011;53653;52.188;8.602;2023-07-16T03:34:36;7.47;;;2.70;;
66739;SDS011;53653;52.188;8.602;2023-07-16T03:37:01;10.57;;;2.93;;
66739;SDS011;53653;52.188;8.602;2023-07-16T03:39:30;8.95;;;3.30;;
66739;SDS011;53653;52.188;8.602;2023-07-16T03:41:55;9.47;;;2.80;;
66739;SDS011;53653;52.188;8.602;2023-07-16T03:44:21;7.07;;;2.87;;
66739;SDS011;53653;52.188;8.602;2023-07-16T03:46:46;7.85;;;2.70;;
66739;SDS011;53653;52.188;8.602;2023-07-16T03:49:12;8.13;;;2.50;;
66739;SDS011;53653;52.188;8.602;2023-07-16T03:51:37;8.40;;;2.90;;
66739;SDS011;53653;52.188;8.602;2023-07-16T03:54:03;9.00;;;2.80;;
66739;SDS011;53653;52.188;8.602;2023-07-16T03:56:28;10.07;;;3.20;;
66739;SDS011;53653;52.188;8.602;2023-07-16T03:58:54;8.13;;;3.10;;
66739;SDS011;53653;52.188;8.602;2023-07-16T04:01:21;7.30;;;3.27;;
66739;SDS011;53653;52.188;8.602;2023-07-16T04:03:46;11.65;;;3.45;;
66739;SDS011;53653;52.188;8.602;2023-07-16T04:06:11;9.87;;;3.53;;
66739;SDS011;53653;52.188;8.602;2023-07-16T04:08:37;10.57;;;3.27;;
66739;SDS011;53653;52.188;8.602;2023-07-16T04:11:06;9.07;;;3.80;;
66739;SDS011;53653;52.188;8.602;2023-07-16T04:13:32;9.52;;;3.72;;
66739;SDS011;53653;52.188;8.602;2023-07-16T04:15:57;10.18;;;4.00;;
66739;SDS011;53653;52.188;8.602;2023-07-16T04:18:26;9.13;;;3.60;;
66739;SDS011;53653;52.188;8.602;2023-07-16T04:20:52;9.70;;;3.45;;
66739;SDS011;53653;52.188;8.602;2023-07-16T04:23:18;7.47;;;3.10;;
66739;SDS011;53653;52.188;8.602;2023-07-16T04:25:44;9.40;;;3.28;;
66739;SDS011;53653;52.188;8.602;2023-07-16T04:28:10;8.57;;;3.30;;
66739;SDS011;53653;52.188;8.602;2023-07-16T04:30:36;8.23;;;3.28;;
66739;SDS011;53653;52.188;8.602;2023-07-16T04:33:05;9.50;;;3.22;;
66739;SDS011;53653;52.188;8.602;2023-07-16T04:35:30;7.53;;;2.70;;
66739;SDS011;53653;52.188;8.602;2023-07-16T04:37:55;8.97;;;3.10;;
66739;SDS011;53653;52.188;8.602;2023-07-16T04:40:21;8.88;;;2.88;;
66739;SDS011;53653;52.188;8.602;2023-07-16T04:42:47;7.10;;;3.50;;
66739;SDS011;53653;52.188;8.602;2023-07-16T04:45:12;8.23;;;3.23;;
66739;SDS011;53653;52.188;8.602;2023-07-16T04:47:38;6.93;;;2.97;;
66739;SDS011;53653;52.188;8.602;2023-07-16T04:50:03;8.93;;;3.10;;
66739;SDS011;53653;52.188;8.602;2023-07-16T04:52:29;8.05;;;3.03;;
66739;SDS011;53653;52.188;8.602;2023-07-16T04:54:55;7.73;;;2.90;;
66739;SDS011;53653;52.188;8.602;2023-07-16T04:57:20;9.10;;;2.80;;
66739;SDS011;53653;52.188;8.602;2023-07-16T04:59:46;10.43;;;3.60;;
66739;SDS011;53653;52.188;8.602;2023-07-16T05:02:11;9.23;;;3.20;;
66739;SDS011;53653;52.188;8.602;2023-07-16T05:04:37;7.63;;;2.58;;
66739;SDS011;53653;52.188;8.602;2023-07-16T05:07:03;7.53;;;2.63;;
66739;SDS011;53653;52.188;8.602;2023-07-16T05:09:29;9.45;;;2.75;;
66739;SDS011;53653;52.188;8.602;2023-07-16T05:11:54;8.53;;;2.80;;
66739;SDS011;53653;52.188;8.602;2023-07-16T05:14:20;7.73;;;2.67;;
66739;SDS011;53653;52.188;8.602;2023-07-16T05:16:45;5.97;;;2.35;;
66739;SDS011;53653;52.188;8.602;2023-07-16T05:19:11;7.97;;;2.47;;
66739;SDS011;53653;52.188;8.602;2023-07-16T05:21:36;10.10;;;2.60;;
66739;SDS011;53653;52.188;8.602;2023-07-16T05:24:02;8.90;;;2.42;;
66739;SDS011;53653;52.188;8.602;2023-07-16T05:26:28;7.67;;;2.10;;
66739;SDS011;53653;52.188;8.602;2023-07-16T05:28:53;7.45;;;2.40;;
66739;SDS011;53653;52.188;8.602;2023-07-16T05:31:18;8.30;;;2.50;;
66739;SDS011;53653;52.188;8.602;2023-07-16T05:33:44;8.33;;;2.50;;
66739;SDS011;53653;52.188;8.602;2023-07-16T05:36:09;8.20;;;2.73;;
66739;SDS011;53653;52.188;8.602;2023-07-16T05:38:35;6.40;;;2.35;;
66739;SDS011;53653;52.188;8.602;2023-07-16T05:41:01;6.77;;;2.13;;
66739;SDS011;53653;52.188;8.602;2023-07-16T05:43:27;11.80;;;2.38;;
66739;SDS011;53653;52.188;8.602;2023-07-16T05:45:53;7.83;;;2.20;;
66739;SDS011;53653;52.188;8.602;2023-07-16T05:48:19;8.47;;;2.10;;
66739;SDS011;53653;52.188;8.602;2023-07-16T05:50:44;6.15;;;1.95;;
66739;SDS011;53653;52.188;8.602;2023-07-16T05:53:10;8.18;;;2.10;;
66739;SDS011;53653;52.188;8.602;2023-07-16T05:55:36;8.17;;;2.30;;
66739;SDS011;53653;52.188;8.602;2023-07-16T05:58:01;8.63;;;2.20;;
66739;SDS011;53653;52.188;8.602;2023-07-16T06:00:27;6.43;;;2.23;;
66739;SDS011;53653;52.188;8.602;2023-07-16T06:02:52;8.43;;;2.43;;
66739;SDS011;53653;52.188;8.602;2023-07-16T06:05:18;14.37;;;2.80;;
66739;SDS011;53653;52.188;8.602;2023-07-16T06:07:43;7.18;;;2.42;;
66739;SDS011;53653;52.188;8.602;2023-07-16T06:10:09;8.20;;;2.10;;
66739;SDS011;53653;52.188;8.602;2023-07-16T06:12:34;5.97;;;2.10;;
66739;SDS011;53653;52.188;8.602;2023-07-16T06:15:00;8.30;;;2.20;;
66739;SDS011;53653;52.188;8.602;2023-07-16T06:17:25;7.70;;;2.30;;
66739;SDS011;53653;52.188;8.602;2023-07-16T06:19:51;7.83;;;2.50;;
66739;SDS011;53653;52.188;8.602;2023-07-16T06:22:17;7.37;;;2.33;;
66739;SDS011;53653;52.188;8.602;2023-07-16T06:24:42;13.88;;;2.72;;
66739;SDS011;53653;52.188;8.602;2023-07-16T06:27:08;8.13;;;2.70;;
66739;SDS011;53653;52.188;8.602;2023-07-16T06:29:33;11.27;;;2.70;;
66739;SDS011;53653;52.188;8.602;2023-07-16T06:31:59;11.93;;;2.78;;
66739;SDS011;53653;52.188;8.602;2023-07-16T06:34:25;7.37;;;2.77;;
66739;SDS011;53653;52.188;8.602;2023-07-16T06:36:51;10.48;;;3.10;;
66739;SDS011;53653;52.188;8.602;2023-07-16T06:39:16;12.33;;;2.83;;
66739;SDS011;53653;52.188;8.602;2023-07-16T06:41:42;7.18;;;2.78;;
66739;SDS011;53653;52.188;8.602;2023-07-16T06:44:07;12.57;;;2.83;;
66739;SDS011;53653;52.188;8.602;2023-07-16T06:46:32;10.83;;;3.27;;
66739;SDS011;53653;52.188;8.602;2023-07-16T06:48:58;7.87;;;2.90;;
66739;SDS011;53653;52.188;8.602;2023-07-16T06:51:23;12.40;;;3.22;;
66739;SDS011;53653;52.188;8.602;2023-07-16T06:53:49;10.53;;;3.23;;
66739;SDS011;53653;52.188;8.602;2023-07-16T06:56:15;12.40;;;3.40;;
66739;SDS011;53653;52.188;8.602;2023-07-16T06:58:40;11.97;;;3.20;;
66739;SDS011;53653;52.188;8.602;2023-07-16T07:01:06;11.80;;;3.20;;
66739;SDS011;53653;52.188;8.602;2023-07-16T07:03:31;10.40;;;3.20;;
66739;SDS011;53653;52.188;8.602;2023-07-16T07:06:01;8.77;;;2.97;;
66739;SDS011;53653;52.188;8.602;2023-07-16T07:08:29;8.52;;;3.25;;
66739;SDS011;53653;52.188;8.602;2023-07-16T07:10:55;9.57;;;3.03;;
66739;SDS011;53653;52.188;8.602;2023-07-16T07:13:20;14.18;;;3.20;;
66739;SDS011;53653;52.188;8.602;2023-07-16T07:15:46;12.90;;;3.23;;
66739;SDS011;53653;52.188;8.602;2023-07-16T07:18:12;8.43;;;2.67;;
66739;SDS011;53653;52.188;8.602;2023-07-16T07:20:39;10.27;;;3.20;;
66739;SDS011;53653;52.188;8.602;2023-07-16T07:23:05;11.17;;;3.70;;
66739;SDS011;53653;52.188;8.602;2023-07-16T07:25:31;11.98;;;3.25;;
66739;SDS011;53653;52.188;8.602;2023-07-16T07:27:56;9.40;;;3.23;;
66739;SDS011;53653;52.188;8.602;2023-07-16T07:30:22;13.30;;;3.42;;
66739;SDS011;53653;52.188;8.602;2023-07-16T07:32:48;8.38;;;3.65;;
66739;SDS011;53653;52.188;8.602;2023-07-16T07:35:14;9.50;;;3.47;;
66739;SDS011;53653;52.188;8.602;2023-07-16T07:37:39;10.13;;;3.08;;
66739;SDS011;53653;52.188;8.602;2023-07-16T07:40:05;8.60;;;3.77;;
66739;SDS011;53653;52.188;8.602;2023-07-16T07:42:32;9.40;;;3.90;;
66739;SDS011;53653;52.188;8.602;2023-07-16T07:44:58;11.32;;;3.70;;
66739;SDS011;53653;52.188;8.602;2023-07-16T07:47:24;11.10;;;3.93;;
66739;SDS011;53653;52.188;8.602;2023-07-16T07:49:52;15.60;;;4.03;;
66739;SDS011;53653;52.188;8.602;2023-07-16T07:52:18;14.15;;;4.20;;
66739;SDS011;53653;52.188;8.602;2023-07-16T07:54:43;12.13;;;3.73;;
66739;SDS011;53653;52.188;8.602;2023-07-16T07:57:09;11.63;;;3.72;;
66739;SDS011;53653;52.188;8.602;2023-07-16T07:59:35;9.20;;;3.27;;
66739;SDS011;53653;52.188;8.602;2023-07-16T08:02:00;11.35;;;4.00;;
66739;SDS011;53653;52.188;8.602;2023-07-16T08:04:29;11.15;;;3.30;;
66739;SDS011;53653;52.188;8.602;2023-07-16T08:06:57;11.40;;;3.73;;
66739;SDS011;53653;52.188;8.602;2023-07-16T08:09:23;11.25;;;3.67;;
66739;SDS011;53653;52.188;8.602;2023-07-16T08:11:48;10.85;;;3.88;;
66739;SDS011;53653;52.188;8.602;2023-07-16T08:14:14;12.03;;;3.27;;
66739;SDS011;53653;52.188;8.602;2023-07-16T08:16:40;8.20;;;3.40;;
66739;SDS011;53653;52.188;8.602;2023-07-16T08:19:05;10.27;;;3.50;;
66739;SDS011;53653;52.188;8.602;2023-07-16T08:21:32;9.90;;;3.90;;
66739;SDS011;53653;52.188;8.602;2023-07-16T08:23:58;9.30;;;2.77;;
66739;SDS011;53653;52.188;8.602;2023-07-16T08:26:23;10.05;;;3.50;;
66739;SDS011;53653;52.188;8.602;2023-07-16T08:28:49;10.33;;;3.80;;
66739;SDS011;53653;52.188;8.602;2023-07-16T08:31:15;11.07;;;3.45;;
66739;SDS011;53653;52.188;8.602;2023-07-16T08:33:41;10.23;;;3.53;;
66739;SDS011;53653;52.188;8.602;2023-07-16T08:36:06;8.55;;;3.28;;
66739;SDS011;53653;52.188;8.602;2023-07-16T08:38:32;13.15;;;3.22;;
66739;SDS011;53653;52.188;8.602;2023-07-16T08:40:59;10.57;;;3.47;;
66739;SDS011;53653;52.188;8.602;2023-07-16T08:43:25;9.48;;;3.30;;
66739;SDS011;53653;52.188;8.602;2023-07-16T08:45:52;8.90;;;3.42;;
66739;SDS011;53653;52.188;8.602;2023-07-16T08:48:18;11.07;;;3.40;;
66739;SDS011;53653;52.188;8.602;2023-07-16T08:50:46;7.70;;;3.22;;
66739;SDS011;53653;52.188;8.602;2023-07-16T08:53:12;9.93;;;3.10;;
66739;SDS011;53653;52.188;8.602;2023-07-16T08:55:40;9.87;;;3.30;;
66739;SDS011;53653;52.188;8.602;2023-07-16T08:58:06;8.82;;;3.60;;
66739;SDS011;53653;52.188;8.602;2023-07-16T09:00:32;8.25;;;3.10;;
66739;SDS011;53653;52.188;8.602;2023-07-16T09:02:59;8.37;;;3.40;;
66739;SDS011;53653;52.188;8.602;2023-07-16T09:05:25;10.80;;;3.55;;
66739;SDS011;53653;52.188;8.602;2023-07-16T09:07:50;10.43;;;3.45;;
66739;SDS011;53653;52.188;8.602;2023-07-16T09:10:16;9.93;;;3.37;;
66739;SDS011;53653;52.188;8.602;2023-07-16T09:12:43;13.50;;;3.60;;
66739;SDS011;53653;52.188;8.602;2023-07-16T09:15:10;10.25;;;3.53;;
66739;SDS011;53653;52.188;8.602;2023-07-16T09:17:46;8.93;;;3.35;;
66739;SDS011;53653;52.188;8.602;2023-07-16T09:20:14;11.35;;;3.40;;
66739;SDS011;53653;52.188;8.602;2023-07-16T09:22:43;9.57;;;3.30;;
66739;SDS011;53653;52.188;8.602;2023-07-16T09:25:09;8.88;;;3.42;;
66739;SDS011;53653;52.188;8.602;2023-07-16T09:27:35;8.93;;;3.10;;
66739;SDS011;53653;52.188;8.602;2023-07-16T09:30:03;35.08;;;3.72;;
66739;SDS011;53653;52.188;8.602;2023-07-16T09:32:37;9.53;;;3.23;;
66739;SDS011;53653;52.188;8.602;2023-07-16T09:35:10;10.23;;;3.22;;
66739;SDS011;53653;52.188;8.602;2023-07-16T09:37:37;9.75;;;3.10;;
66739;SDS011;53653;52.188;8.602;2023-07-16T09:40:07;9.38;;;3.45;;
66739;SDS011;53653;52.188;8.602;2023-07-16T09:42:38;9.10;;;3.60;;
66739;SDS011;53653;52.188;8.602;2023-07-16T09:45:05;9.27;;;3.47;;
66739;SDS011;53653;52.188;8.602;2023-07-16T09:47:32;9.60;;;3.38;;
66739;SDS011;53653;52.188;8.602;2023-07-16T09:49:58;8.98;;;3.33;;
66739;SDS011;53653;52.188;8.602;2023-07-16T09:52:24;9.13;;;3.33;;
66739;SDS011;53653;52.188;8.602;2023-07-16T09:54:52;9.48;;;3.15;;
66739;SDS011;53653;52.188;8.602;2023-07-16T09:57:21;10.85;;;3.33;;
66739;SDS011;53653;52.188;8.602;2023-07-16T09:59:50;8.38;;;2.95;;
66739;SDS011;53653;52.188;8.602;2023-07-16T10:02:17;7.77;;;2.83;;
66739;SDS011;53653;52.188;8.602;2023-07-16T10:04:43;8.15;;;3.20;;
66739;SDS011;53653;52.188;8.602;2023-07-16T10:07:21;9.65;;;3.10;;
66739;SDS011;53653;52.188;8.602;2023-07-16T10:09:58;8.77;;;3.17;;
66739;SDS011;53653;52.188;8.602;2023-07-16T10:12:24;11.02;;;3.50;;
66739;SDS011;53653;52.188;8.602;2023-07-16T10:14:52;7.05;;;3.00;;
66739;SDS011;53653;52.188;8.602;2023-07-16T10:17:20;8.50;;;3.10;;
66739;SDS011;53653;52.188;8.602;2023-07-16T10:19:59;9.00;;;2.67;;
66739;SDS011;53653;52.188;8.602;2023-07-16T10:22:45;10.20;;;3.17;;
66739;SDS011;53653;52.188;8.602;2023-07-16T10:27:44;8.63;;;3.33;;
66739;SDS011;53653;52.188;8.602;2023-07-16T10:30:10;7.78;;;3.05;;
66739;SDS011;53653;52.188;8.602;2023-07-16T10:32:36;8.93;;;3.38;;
66739;SDS011;53653;52.188;8.602;2023-07-16T10:35:03;9.83;;;2.87;;
66739;SDS011;53653;52.188;8.602;2023-07-16T10:37:30;7.38;;;2.85;;
66739;SDS011;53653;52.188;8.602;2023-07-16T10:39:57;10.07;;;2.90;;
66739;SDS011;53653;52.188;8.602;2023-07-16T10:42:24;8.00;;;2.85;;
66739;SDS011;53653;52.188;8.602;2023-07-16T10:44:52;10.87;;;2.97;;
66739;SDS011;53653;52.188;8.602;2023-07-16T10:47:19;11.45;;;3.40;;
66739;SDS011;53653;52.188;8.602;2023-07-16T10:49:49;7.72;;;3.10;;
66739;SDS011;53653;52.188;8.602;2023-07-16T10:52:17;7.82;;;2.85;;
66739;SDS011;53653;52.188;8.602;2023-07-16T10:54:43;8.68;;;3.15;;
66739;SDS011;53653;52.188;8.602;2023-07-16T10:57:10;10.60;;;3.57;;
66739;SDS011;53653;52.188;8.602;2023-07-16T10:59:40;9.55;;;2.75;;
66739;SDS011;53653;52.188;8.602;2023-07-16T11:02:10;7.70;;;2.70;;
66739;SDS011;53653;52.188;8.602;2023-07-16T11:04:36;10.00;;;2.67;;
66739;SDS011;53653;52.188;8.602;2023-07-16T11:07:08;8.57;;;3.80;;
66739;SDS011;53653;52.188;8.602;2023-07-16T11:09:40;8.05;;;2.80;;
66739;SDS011;53653;52.188;8.602;2023-07-16T11:12:16;8.80;;;2.95;;
66739;SDS011;53653;52.188;8.602;2023-07-16T11:14:44;8.45;;;2.83;;
66739;SDS011;53653;52.188;8.602;2023-07-16T11:17:11;12.50;;;3.50;;
66739;SDS011;53653;52.188;8.602;2023-07-16T11:19:37;8.23;;;2.72;;
66739;SDS011;53653;52.188;8.602;2023-07-16T11:22:05;8.25;;;2.65;;
66739;SDS011;53653;52.188;8.602;2023-07-16T11:24:40;8.80;;;3.00;;
66739;SDS011;53653;52.188;8.602;2023-07-16T11:27:14;7.75;;;2.85;;
66739;SDS011;53653;52.188;8.602;2023-07-16T11:32:33;8.52;;;2.97;;
66739;SDS011;53653;52.188;8.602;2023-07-16T11:34:59;7.43;;;3.03;;
66739;SDS011;53653;52.188;8.602;2023-07-16T11:37:26;7.63;;;3.10;;
66739;SDS011;53653;52.188;8.602;2023-07-16T11:39:59;9.25;;;2.97;;
66739;SDS011;53653;52.188;8.602;2023-07-16T11:42:28;9.30;;;3.93;;
66739;SDS011;53653;52.188;8.602;2023-07-16T11:44:55;8.38;;;2.92;;
66739;SDS011;53653;52.188;8.602;2023-07-16T11:47:21;7.95;;;2.47;;
66739;SDS011;53653;52.188;8.602;2023-07-16T11:49:48;7.88;;;2.90;;
66739;SDS011;53653;52.188;8.602;2023-07-16T11:52:14;8.13;;;2.47;;
66739;SDS011;53653;52.188;8.602;2023-07-16T11:54:39;7.57;;;2.92;;
66739;SDS011;53653;52.188;8.602;2023-07-16T11:57:05;9.63;;;3.10;;
66739;SDS011;53653;52.188;8.602;2023-07-16T11:59:31;8.00;;;2.80;;
66739;SDS011;53653;52.188;8.602;2023-07-16T12:01:57;10.20;;;3.20;;
66739;SDS011;53653;52.188;8.602;2023-07-16T12:04:22;6.40;;;2.57;;
66739;SDS011;53653;52.188;8.602;2023-07-16T12:06:48;10.07;;;3.38;;
66739;SDS011;53653;52.188;8.602;2023-07-16T12:09:14;10.63;;;2.90;;
66739;SDS011;53653;52.188;8.602;2023-07-16T12:11:39;7.83;;;2.80;;
66739;SDS011;53653;52.188;8.602;2023-07-16T12:14:05;8.25;;;3.13;;
66739;SDS011;53653;52.188;8.602;2023-07-16T12:16:31;7.38;;;2.80;;
66739;SDS011;53653;52.188;8.602;2023-07-16T12:18:57;7.90;;;2.73;;
66739;SDS011;53653;52.188;8.602;2023-07-16T12:21:22;7.95;;;2.78;;
66739;SDS011;53653;52.188;8.602;2023-07-16T12:23:48;8.40;;;3.10;;
66739;SDS011;53653;52.188;8.602;2023-07-16T12:26:13;8.80;;;2.73;;
66739;SDS011;53653;52.188;8.602;2023-07-16T12:28:39;9.35;;;2.60;;
66739;SDS011;53653;52.188;8.602;2023-07-16T12:31:05;7.63;;;2.87;;
66739;SDS011;53653;52.188;8.602;2023-07-16T12:33:30;8.35;;;3.35;;
66739;SDS011;53653;52.188;8.602;2023-07-16T12:35:55;7.07;;;2.90;;
66739;SDS011;53653;52.188;8.602;2023-07-16T12:38:21;6.93;;;2.73;;
66739;SDS011;53653;52.188;8.602;2023-07-16T12:40:47;7.45;;;2.63;;
66739;SDS011;53653;52.188;8.602;2023-07-16T12:43:13;10.90;;;3.03;;
66739;SDS011;53653;52.188;8.602;2023-07-16T12:45:39;9.25;;;2.80;;
66739;SDS011;53653;52.188;8.602;2023-07-16T12:48:04;8.17;;;2.43;;
66739;SDS011;53653;52.188;8.602;2023-07-16T12:50:30;7.13;;;3.00;;
66739;SDS011;53653;52.188;8.602;2023-07-16T12:52:55;8.80;;;3.17;;
66739;SDS011;53653;52.188;8.602;2023-07-16T12:55:21;8.67;;;2.37;;
66739;SDS011;53653;52.188;8.602;2023-07-16T12:57:46;8.18;;;2.67;;
66739;SDS011;53653;52.188;8.602;2023-07-16T13:00:12;8.87;;;2.77;;
66739;SDS011;53653;52.188;8.602;2023-07-16T13:02:38;8.35;;;2.63;;
66739;SDS011;53653;52.188;8.602;2023-07-16T13:05:04;7.70;;;2.85;;
66739;SDS011;53653;52.188;8.602;2023-07-16T13:07:33;7.73;;;2.60;;
66739;SDS011;53653;52.188;8.602;2023-07-16T13:09:58;7.70;;;2.65;;
66739;SDS011;53653;52.188;8.602;2023-07-16T13:12:24;7.73;;;2.73;;
66739;SDS011;53653;52.188;8.602;2023-07-16T13:14:49;8.30;;;2.67;;
66739;SDS011;53653;52.188;8.602;2023-07-16T13:17:14;8.20;;;2.83;;
66739;SDS011;53653;52.188;8.602;2023-07-16T13:19:41;7.50;;;2.85;;
66739;SDS011;53653;52.188;8.602;2023-07-16T13:22:07;9.43;;;2.80;;
66739;SDS011;53653;52.188;8.602;2023-07-16T13:24:32;7.17;;;2.40;;
66739;SDS011;53653;52.188;8.602;2023-07-16T13:26:58;9.10;;;2.60;;
66739;SDS011;53653;52.188;8.602;2023-07-16T13:29:23;6.80;;;2.40;;
66739;SDS011;53653;52.188;8.602;2023-07-16T13:31:48;8.40;;;2.67;;
66739;SDS011;53653;52.188;8.602;2023-07-16T13:34:14;10.47;;;2.73;;
66739;SDS011;53653;52.188;8.602;2023-07-16T13:36:39;7.33;;;2.70;;
66739;SDS011;53653;52.188;8.602;2023-07-16T13:39:05;7.72;;;2.42;;
66739;SDS011;53653;52.188;8.602;2023-07-16T13:41:31;10.20;;;3.30;;
66739;SDS011;53653;52.188;8.602;2023-07-16T13:43:57;8.60;;;2.70;;
66739;SDS011;53653;52.188;8.602;2023-07-16T13:46:22;8.00;;;2.63;;
66739;SDS011;53653;52.188;8.602;2023-07-16T13:48:48;12.33;;;2.93;;
66739;SDS011;53653;52.188;8.602;2023-07-16T13:51:14;9.05;;;2.58;;
66739;SDS011;53653;52.188;8.602;2023-07-16T13:53:39;8.67;;;2.67;;
66739;SDS011;53653;52.188;8.602;2023-07-16T13:56:05;7.85;;;2.60;;
66739;SDS011;53653;52.188;8.602;2023-07-16T13:58:31;8.23;;;2.60;;
66739;SDS011;53653;52.188;8.602;2023-07-16T14:00:58;12.00;;;2.53;;
66739;SDS011;53653;52.188;8.602;2023-07-16T14:03:24;8.53;;;2.53;;
66739;SDS011;53653;52.188;8.602;2023-07-16T14:05:49;8.52;;;2.60;;
66739;SDS011;53653;52.188;8.602;2023-07-16T14:08:15;8.07;;;2.57;;
66739;SDS011;53653;52.188;8.602;2023-07-16T14:10:40;9.57;;;2.73;;
66739;SDS011;53653;52.188;8.602;2023-07-16T14:13:06;7.07;;;2.60;;
66739;SDS011;53653;52.188;8.602;2023-07-16T14:15:31;6.33;;;2.60;;
66739;SDS011;53653;52.188;8.602;2023-07-16T14:17:57;8.90;;;2.50;;
66739;SDS011;53653;52.188;8.602;2023-07-16T14:20:22;9.80;;;2.55;;
66739;SDS011;53653;52.188;8.602;2023-07-16T14:22:48;10.57;;;2.90;;
66739;SDS011;53653;52.188;8.602;2023-07-16T14:25:13;7.82;;;2.58;;
66739;SDS011;53653;52.188;8.602;2023-07-16T14:27:39;8.77;;;2.60;;
66739;SDS011;53653;52.188;8.602;2023-07-16T14:30:05;7.23;;;2.47;;
66739;SDS011;53653;52.188;8.602;2023-07-16T14:32:33;7.53;;;2.63;;
66739;SDS011;53653;52.188;8.602;2023-07-16T14:34:59;8.55;;;2.85;;
66739;SDS011;53653;52.188;8.602;2023-07-16T14:37:25;9.10;;;3.00;;
66739;SDS011;53653;52.188;8.602;2023-07-16T14:39:50;8.10;;;2.60;;
66739;SDS011;53653;52.188;8.602;2023-07-16T14:42:16;7.20;;;2.75;;
66739;SDS011;53653;52.188;8.602;2023-07-16T14:44:42;7.33;;;2.40;;
66739;SDS011;53653;52.188;8.602;2023-07-16T14:47:07;6.97;;;2.42;;
66739;SDS011;53653;52.188;8.602;2023-07-16T14:49:34;10.77;;;2.57;;
66739;SDS011;53653;52.188;8.602;2023-07-16T14:52:00;8.40;;;2.70;;